createdAt,value
2023-02-12T00:00:00.173Z,5.26
2023-02-12T00:01:00.162Z,5.34
2023-02-12T00:02:00.329Z,5.19
2023-02-12T00:03:00.174Z,5.08
2023-02-12T00:04:03.308Z,5.15
2023-02-12T00:05:00.214Z,5.22
2023-02-12T00:06:00.711Z,5.13
2023-02-12T00:07:00.192Z,5.33
2023-02-12T00:08:00.214Z,5.15
2023-02-12T00:09:00.217Z,5.18
2023-02-12T00:10:00.207Z,5.18
2023-02-12T00:11:00.201Z,5.19
2023-02-12T00:12:00.233Z,5.19
2023-02-12T00:13:01.260Z,5.08
2023-02-12T00:14:00.316Z,4.94
2023-02-12T00:15:03.290Z,5.01
2023-02-12T00:16:01.309Z,4.95
2023-02-12T00:17:00.207Z,4.97
2023-02-12T00:18:00.205Z,5
2023-02-12T00:19:00.193Z,5.01
2023-02-12T00:20:00.196Z,5
2023-02-12T00:21:00.191Z,4.94
2023-02-12T00:22:00.224Z,5.08
2023-02-12T00:23:00.253Z,5.07
2023-02-12T00:24:00.216Z,5.07
2023-02-12T00:25:00.252Z,5.04
2023-02-12T00:26:03.456Z,5.04
2023-02-12T00:27:00.230Z,5.05
2023-02-12T00:28:00.360Z,5.01
2023-02-12T00:29:00.243Z,5.01
2023-02-12T00:30:00.476Z,5.01
2023-02-12T00:31:00.589Z,5.02
2023-02-12T00:32:00.511Z,5.02
2023-02-12T00:33:00.262Z,5.05
2023-02-12T00:34:00.232Z,5.08
2023-02-12T00:35:01.294Z,5.18
2023-02-12T00:36:00.687Z,5.22
2023-02-12T00:37:00.430Z,5.07
2023-02-12T00:38:00.290Z,5.22
2023-02-12T00:39:00.433Z,5.23
2023-02-12T00:40:00.248Z,5.2
2023-02-12T00:41:00.220Z,5.34
2023-02-12T00:42:00.248Z,5.34
2023-02-12T00:43:00.250Z,5.33
2023-02-12T00:44:02.966Z,5.28
2023-02-12T00:45:00.257Z,5.26
2023-02-12T00:46:01.583Z,5.29
2023-02-12T00:47:00.278Z,5.26
2023-02-12T00:48:03.133Z,5.19
2023-02-12T00:49:00.278Z,5.18
2023-02-12T00:50:00.294Z,5.23
2023-02-12T00:51:00.285Z,5.2
2023-02-12T00:52:00.272Z,5.18
2023-02-12T00:53:00.245Z,5.25
2023-02-12T00:54:00.295Z,5.26
2023-02-12T00:55:00.304Z,5.28
2023-02-12T00:56:01.010Z,5.2
2023-02-12T00:57:00.295Z,5.26
2023-02-12T00:58:00.287Z,5.23
2023-02-12T00:59:03.094Z,5.22
2023-02-12T01:00:00.286Z,5.26
2023-02-12T01:01:01.325Z,5.34
2023-02-12T01:02:00.674Z,5.28
2023-02-12T01:03:00.293Z,5.31
2023-02-12T01:04:00.846Z,5.25
2023-02-12T01:05:00.467Z,5.33
2023-02-12T01:06:01.136Z,5.34
2023-02-12T01:07:00.311Z,5.26
2023-02-12T01:08:00.339Z,5.33
2023-02-12T01:09:00.337Z,5.34
2023-02-12T01:10:03.295Z,5.33
2023-02-12T01:11:00.300Z,5.34
2023-02-12T01:12:00.314Z,5.36
2023-02-12T01:13:00.356Z,5.33
2023-02-12T01:14:00.346Z,5.38
2023-02-12T01:15:03.294Z,5.34
2023-02-12T01:16:01.335Z,5.29
2023-02-12T01:17:00.315Z,5.31
2023-02-12T01:18:00.355Z,5.29
2023-02-12T01:19:00.931Z,5.18
2023-02-12T01:20:00.298Z,5.23
2023-02-12T01:21:03.186Z,5.29
2023-02-12T01:22:00.306Z,5.37
2023-02-12T01:23:00.296Z,5.37
2023-02-12T01:24:00.334Z,5.33
2023-02-12T01:25:03.101Z,5.31
2023-02-12T01:26:03.500Z,5.43
2023-02-12T01:27:00.306Z,5.44
2023-02-12T01:28:00.406Z,5.36
2023-02-12T01:29:00.376Z,5.33
2023-02-12T01:30:00.356Z,5.34
2023-02-12T01:31:00.768Z,5.31
2023-02-12T01:32:00.854Z,5.29
2023-02-12T01:33:01.381Z,5.33
2023-02-12T01:34:00.532Z,5.28
2023-02-12T01:35:00.191Z,5.37
2023-02-12T01:36:00.774Z,5.31
2023-02-12T01:37:00.349Z,5.15
2023-02-12T01:38:03.006Z,5.26
2023-02-12T01:39:00.358Z,5.2
2023-02-12T01:40:00.378Z,5.2
2023-02-12T01:41:03.098Z,5.12
2023-02-12T01:42:00.363Z,5.12
2023-02-12T01:43:00.356Z,5.26
2023-02-12T01:44:00.381Z,5.26
2023-02-12T01:45:00.368Z,5.19
2023-02-12T01:46:00.919Z,5.19
2023-02-12T01:47:00.358Z,5.22
2023-02-12T01:48:00.376Z,5.2
2023-02-12T01:49:00.386Z,5.16
2023-02-12T01:50:00.494Z,5.18
2023-02-12T01:51:00.377Z,5.22
2023-02-12T01:52:00.399Z,5.26
2023-02-12T01:53:03.467Z,5.34
2023-02-12T01:54:00.373Z,5.25
2023-02-12T01:55:04.823Z,5.28
2023-02-12T01:56:00.718Z,5.34
2023-02-12T01:57:00.416Z,5.38
2023-02-12T01:58:00.394Z,5.36
2023-02-12T01:59:00.395Z,5.37
2023-02-12T02:00:00.417Z,5.38
2023-02-12T02:01:00.380Z,5.31
2023-02-12T02:02:00.666Z,5.2
2023-02-12T02:03:00.508Z,5.22
2023-02-12T02:04:04.330Z,5.18
2023-02-12T02:05:00.472Z,5.18
2023-02-12T02:08:00.459Z,5.18
2023-02-12T02:09:03.185Z,5.2
2023-02-12T02:10:00.403Z,5.16
2023-02-12T02:11:00.401Z,5.22
2023-02-12T02:12:00.412Z,5.18
2023-02-12T02:13:00.408Z,5.12
2023-02-12T02:14:00.400Z,5.12
2023-02-12T02:15:00.460Z,5.16
2023-02-12T02:16:01.401Z,5.15
2023-02-12T02:17:00.419Z,5.16
2023-02-12T02:18:00.427Z,5.16
2023-02-12T02:19:00.395Z,5.19
2023-02-12T02:20:04.278Z,5.13
2023-02-12T02:21:03.149Z,5.19
2023-02-12T02:22:00.413Z,5.19
2023-02-12T02:23:00.263Z,5.13
2023-02-12T02:24:00.483Z,5.18
2023-02-12T02:25:00.456Z,5.16
2023-02-12T02:26:00.834Z,5.13
2023-02-12T02:27:00.484Z,5.23
2023-02-12T02:28:00.536Z,5.19
2023-02-12T02:29:00.431Z,5.28
2023-02-12T02:30:00.481Z,5.19
2023-02-12T02:31:03.612Z,5.34
2023-02-12T02:32:00.630Z,5.31
2023-02-12T02:33:01.455Z,5.38
2023-02-12T02:34:00.404Z,5.38
2023-02-12T02:35:00.455Z,5.4
2023-02-12T02:36:00.941Z,5.36
2023-02-12T02:37:08.767Z,5.34
2023-02-12T02:38:00.432Z,5.34
2023-02-12T02:39:00.463Z,5.37
2023-02-12T02:40:00.550Z,5.34
2023-02-12T02:41:00.431Z,5.44
2023-02-12T02:42:03.657Z,5.29
2023-02-12T02:43:00.439Z,5.34
2023-02-12T02:44:00.450Z,5.36
2023-02-12T02:45:00.503Z,5.41
2023-02-12T02:46:01.940Z,5.4
2023-02-12T02:47:00.595Z,5.25
2023-02-12T02:48:00.480Z,5.29
2023-02-12T02:49:00.434Z,5.26
2023-02-12T02:50:00.539Z,5.36
2023-02-12T02:51:00.425Z,5.31
2023-02-12T02:52:00.501Z,5.36
2023-02-12T02:53:03.228Z,5.31
2023-02-12T02:54:00.424Z,5.4
2023-02-12T02:55:00.480Z,5.31
2023-02-12T02:56:01.022Z,5.29
2023-02-12T02:57:00.434Z,5.19
2023-02-12T02:58:00.473Z,5.23
2023-02-12T02:59:00.463Z,5.26
2023-02-12T03:00:03.631Z,4.98
2023-02-12T03:01:00.679Z,5.19
2023-02-12T03:02:00.576Z,5.05
2023-02-12T03:03:00.592Z,5.18
2023-02-12T03:04:03.487Z,5.05
2023-02-12T03:05:00.508Z,5.08
2023-02-12T03:06:00.896Z,5.08
2023-02-12T03:07:00.474Z,5.13
2023-02-12T03:08:00.485Z,5.1
2023-02-12T03:09:00.464Z,5.16
2023-02-12T03:10:00.518Z,5.19
2023-02-12T03:11:01.485Z,5.19
2023-02-12T03:12:00.725Z,5.08
2023-02-12T03:13:00.486Z,5.01
2023-02-12T03:14:00.481Z,5.13
2023-02-12T03:15:03.320Z,5.15
2023-02-12T03:16:01.331Z,5.07
2023-02-12T03:17:00.523Z,5.07
2023-02-12T03:18:00.506Z,5.12
2023-02-12T03:19:00.490Z,5.1
2023-02-12T03:20:00.578Z,5.16
2023-02-12T03:21:00.484Z,5.13
2023-02-12T03:22:00.498Z,5.19
2023-02-12T03:23:00.489Z,5.19
2023-02-12T03:24:00.704Z,5.19
2023-02-12T03:25:00.528Z,5.23
2023-02-12T03:26:03.933Z,5.23
2023-02-12T03:27:00.522Z,5.23
2023-02-12T03:28:00.703Z,5.2
2023-02-12T03:29:00.502Z,5.29
2023-02-12T03:30:00.521Z,5.37
2023-02-12T03:31:03.885Z,5.29
2023-02-12T03:32:00.629Z,5.36
2023-02-12T03:33:00.524Z,5.33
2023-02-12T03:34:00.517Z,5.33
2023-02-12T03:35:00.552Z,5.28
2023-02-12T03:36:00.998Z,5.31
2023-02-12T03:37:03.601Z,5.37
2023-02-12T03:38:00.594Z,5.34
2023-02-12T03:39:00.553Z,5.31
2023-02-12T03:40:00.587Z,5.23
2023-02-12T03:41:00.570Z,5.26
2023-02-12T03:42:03.391Z,5.38
2023-02-12T03:43:00.531Z,5.34
2023-02-12T03:44:00.617Z,5.36
2023-02-12T03:45:00.569Z,5.33
2023-02-12T03:46:01.513Z,5.4
2023-02-12T03:47:00.531Z,5.33
2023-02-12T03:48:03.341Z,5.33
2023-02-12T03:49:00.591Z,5.38
2023-02-12T03:50:00.554Z,5.43
2023-02-12T03:51:00.547Z,5.38
2023-02-12T03:52:00.557Z,5.4
2023-02-12T03:53:03.353Z,5.33
2023-02-12T03:54:00.564Z,5.34
2023-02-12T03:55:00.579Z,5.38
2023-02-12T03:56:00.951Z,5.29
2023-02-12T03:57:00.560Z,5.34
2023-02-12T03:58:00.559Z,5.47
2023-02-12T03:59:00.564Z,5.38
2023-02-12T04:00:00.649Z,5.47
2023-02-12T04:01:00.670Z,5.4
2023-02-12T04:02:00.918Z,5.38
2023-02-12T04:03:00.549Z,5.4
2023-02-12T04:04:00.820Z,5.34
2023-02-12T04:05:00.613Z,5.46
2023-02-12T04:06:01.123Z,5.52
2023-02-12T04:07:00.569Z,5.49
2023-02-12T04:08:00.549Z,5.34
2023-02-12T04:09:00.655Z,5.51
2023-02-12T04:10:00.590Z,5.44
2023-02-12T04:11:00.555Z,5.49
2023-02-12T04:12:00.551Z,5.52
2023-02-12T04:13:00.569Z,5.54
2023-02-12T04:14:00.743Z,5.52
2023-02-12T04:15:00.837Z,5.44
2023-02-12T04:16:01.372Z,5.44
2023-02-12T04:17:00.953Z,5.55
2023-02-12T04:18:00.875Z,5.47
2023-02-12T04:19:00.568Z,5.41
2023-02-12T04:20:03.395Z,5.44
2023-02-12T04:21:00.616Z,5.44
2023-02-12T04:22:00.624Z,5.43
2023-02-12T04:23:00.564Z,5.43
2023-02-12T04:24:00.594Z,5.47
2023-02-12T04:25:00.644Z,5.38
2023-02-12T04:26:01.267Z,5.43
2023-02-12T04:27:00.587Z,5.51
2023-02-12T04:28:00.733Z,5.44
2023-02-12T04:29:00.602Z,5.44
2023-02-12T04:30:00.617Z,5.47
2023-02-12T04:31:03.874Z,5.54
2023-02-12T04:32:01.682Z,5.41
2023-02-12T04:33:01.609Z,5.37
2023-02-12T04:34:00.591Z,5.31
2023-02-12T04:35:00.623Z,5.33
2023-02-12T04:36:03.609Z,5.38
2023-02-12T04:37:00.631Z,5.44
2023-02-12T04:38:00.617Z,5.46
2023-02-12T04:39:00.599Z,5.51
2023-02-12T04:40:00.640Z,5.44
2023-02-12T04:41:00.609Z,5.44
2023-02-12T04:42:00.607Z,5.46
2023-02-12T04:43:00.616Z,5.52
2023-02-12T04:44:00.623Z,5.54
2023-02-12T04:45:01.655Z,5.44
2023-02-12T04:46:01.460Z,5.51
2023-02-12T04:47:03.801Z,5.51
2023-02-12T04:48:00.632Z,5.49
2023-02-12T04:49:00.629Z,5.49
2023-02-12T04:50:00.666Z,5.49
2023-02-12T04:51:00.644Z,5.47
2023-02-12T04:52:00.651Z,5.55
2023-02-12T04:53:00.614Z,5.46
2023-02-12T04:54:00.645Z,5.41
2023-02-12T04:55:00.662Z,5.43
2023-02-12T04:56:01.105Z,5.33
2023-02-12T04:57:00.668Z,5.41
2023-02-12T04:58:03.731Z,5.34
2023-02-12T04:59:00.625Z,5.38
2023-02-12T05:00:00.664Z,5.38
2023-02-12T05:01:00.781Z,5.51
2023-02-12T05:02:00.649Z,5.49
2023-02-12T05:03:00.757Z,5.44
2023-02-12T05:04:00.667Z,5.46
2023-02-12T05:05:03.775Z,5.44
2023-02-12T05:06:01.030Z,5.49
2023-02-12T05:07:00.677Z,5.54
2023-02-12T05:08:00.705Z,5.47
2023-02-12T05:09:03.421Z,5.54
2023-02-12T05:10:00.702Z,5.43
2023-02-12T05:11:00.655Z,5.49
2023-02-12T05:12:00.674Z,5.46
2023-02-12T05:13:00.666Z,5.54
2023-02-12T05:14:00.872Z,5.4
2023-02-12T05:15:00.791Z,5.46
2023-02-12T05:16:01.576Z,5.52
2023-02-12T05:17:00.693Z,5.51
2023-02-12T05:18:00.694Z,5.44
2023-02-12T05:19:00.754Z,5.46
2023-02-12T05:20:03.481Z,5.47
2023-02-12T05:21:00.708Z,5.43
2023-02-12T05:22:00.669Z,5.41
2023-02-12T05:23:00.686Z,5.43
2023-02-12T05:24:00.696Z,5.44
2023-02-12T05:25:00.700Z,5.46
2023-02-12T05:26:01.131Z,5.49
2023-02-12T05:27:00.704Z,5.47
2023-02-12T05:28:02.085Z,5.47
2023-02-12T05:29:00.685Z,5.33
2023-02-12T05:30:00.710Z,5.43
2023-02-12T05:31:04.143Z,5.46
2023-02-12T05:32:01.167Z,5.4
2023-02-12T05:33:00.697Z,5.41
2023-02-12T05:34:00.692Z,5.44
2023-02-12T05:35:00.883Z,5.51
2023-02-12T05:36:01.053Z,5.41
2023-02-12T05:37:00.696Z,5.49
2023-02-12T05:38:00.692Z,5.49
2023-02-12T05:39:00.733Z,5.37
2023-02-12T05:40:00.720Z,5.46
2023-02-12T05:41:00.705Z,5.41
2023-02-12T05:42:03.652Z,5.34
2023-02-12T05:43:00.730Z,5.41
2023-02-12T05:44:00.704Z,5.41
2023-02-12T05:45:00.728Z,5.41
2023-02-12T05:46:01.433Z,5.41
2023-02-12T05:47:00.717Z,5.41
2023-02-12T05:48:00.701Z,5.46
2023-02-12T05:49:00.711Z,5.34
2023-02-12T05:50:00.778Z,5.46
2023-02-12T05:51:00.845Z,5.46
2023-02-12T05:52:00.747Z,5.44
2023-02-12T05:53:03.728Z,5.46
2023-02-12T05:54:00.734Z,5.49
2023-02-12T05:55:00.776Z,5.4
2023-02-12T05:56:01.101Z,5.4
2023-02-12T05:57:00.713Z,5.4
2023-02-12T05:58:03.821Z,5.49
2023-02-12T05:59:00.745Z,5.41
2023-02-12T06:00:00.801Z,5.44
2023-02-12T06:01:00.767Z,5.43
2023-02-12T06:02:00.771Z,5.4
2023-02-12T06:03:00.921Z,5.31
2023-02-12T06:04:03.978Z,5.46
2023-02-12T06:05:00.759Z,5.37
2023-02-12T06:06:01.257Z,5.41
2023-02-12T06:07:00.874Z,5.38
2023-02-12T06:08:00.766Z,5.34
2023-02-12T06:09:03.531Z,5.36
2023-02-12T06:10:00.898Z,5.29
2023-02-12T06:11:00.789Z,5.2
2023-02-12T06:12:00.768Z,5.19
2023-02-12T06:13:00.765Z,5.22
2023-02-12T06:14:00.785Z,5.22
2023-02-12T06:15:03.672Z,5.33
2023-02-12T06:16:04.850Z,5.33
2023-02-12T06:17:00.784Z,5.37
2023-02-12T06:18:00.747Z,5.33
2023-02-12T06:19:00.790Z,5.37
2023-02-12T06:20:02.068Z,5.41
2023-02-12T06:21:00.779Z,5.38
2023-02-12T06:22:00.772Z,5.4
2023-02-12T06:23:00.877Z,5.37
2023-02-12T06:24:00.788Z,5.38
2023-02-12T06:25:00.803Z,5.38
2023-02-12T06:26:01.291Z,5.34
2023-02-12T06:27:00.782Z,5.34
2023-02-12T06:28:00.862Z,5.4
2023-02-12T06:29:01.632Z,5.29
2023-02-12T06:30:00.805Z,5.4
2023-02-12T06:31:01.248Z,5.44
2023-02-12T06:32:01.260Z,5.41
2023-02-12T06:33:01.858Z,5.37
2023-02-12T06:34:00.792Z,5.29
2023-02-12T06:35:01.830Z,5.31
2023-02-12T06:36:01.418Z,5.36
2023-02-12T06:37:00.807Z,5.38
2023-02-12T06:38:00.791Z,5.29
2023-02-12T06:39:00.905Z,5.36
2023-02-12T06:40:00.864Z,5.26
2023-02-12T06:41:00.808Z,5.36
2023-02-12T06:42:00.841Z,5.31
2023-02-12T06:43:00.835Z,5.33
2023-02-12T06:44:00.841Z,5.33
2023-02-12T06:45:00.856Z,5.25
2023-02-12T06:46:01.388Z,5.28
2023-02-12T06:47:04.234Z,5.1
2023-02-12T06:48:00.823Z,5.19
2023-02-12T06:49:00.951Z,5.2
2023-02-12T06:50:00.881Z,5.13
2023-02-12T06:51:00.635Z,5.23
2023-02-12T06:52:03.185Z,5.25
2023-02-12T06:53:00.822Z,5.29
2023-02-12T06:54:00.833Z,5.33
2023-02-12T06:55:01.002Z,5.26
2023-02-12T06:56:01.295Z,5.33
2023-02-12T06:57:00.856Z,5.36
2023-02-12T06:58:00.868Z,5.34
2023-02-12T06:59:00.841Z,5.36
2023-02-12T07:00:00.912Z,5.41
2023-02-12T07:01:00.956Z,5.4
2023-02-12T07:02:00.820Z,5.36
2023-02-12T07:03:03.811Z,5.36
2023-02-12T07:04:01.213Z,5.38
2023-02-12T07:05:00.872Z,5.31
2023-02-12T07:06:01.330Z,5.4
2023-02-12T07:07:00.836Z,5.34
2023-02-12T07:08:00.848Z,5.37
2023-02-12T07:09:00.876Z,5.43
2023-02-12T07:10:00.986Z,5.54
2023-02-12T07:11:00.931Z,5.51
2023-02-12T07:12:00.859Z,5.51
2023-02-12T07:13:00.832Z,5.54
2023-02-12T07:14:03.918Z,5.49
2023-02-12T07:15:00.923Z,5.59
2023-02-12T07:16:01.713Z,5.59
2023-02-12T07:17:02.074Z,5.51
2023-02-12T07:18:00.880Z,5.55
2023-02-12T07:19:00.844Z,5.67
2023-02-12T07:20:00.887Z,5.56
2023-02-12T07:21:00.922Z,5.54
2023-02-12T07:22:00.953Z,5.59
2023-02-12T07:23:00.865Z,5.64
2023-02-12T07:24:00.896Z,5.61
2023-02-12T07:25:03.685Z,5.55
2023-02-12T07:26:01.306Z,5.59
2023-02-12T07:27:01.052Z,5.62
2023-02-12T07:28:00.985Z,5.41
2023-02-12T07:29:00.912Z,5.46
2023-02-12T07:30:00.889Z,5.55
2023-02-12T07:31:01.083Z,5.56
2023-02-12T07:32:03.988Z,5.46
2023-02-12T07:33:00.920Z,5.51
2023-02-12T07:34:00.931Z,5.56
2023-02-12T07:35:00.947Z,5.59
2023-02-12T07:36:04.522Z,5.58
2023-02-12T07:37:00.917Z,5.61
2023-02-12T07:38:00.881Z,5.61
2023-02-12T07:39:00.898Z,5.56
2023-02-12T07:40:00.919Z,5.61
2023-02-12T07:41:00.904Z,5.69
2023-02-12T07:42:00.561Z,5.59
2023-02-12T07:43:01.009Z,5.64
2023-02-12T07:44:00.958Z,5.65
2023-02-12T07:45:00.985Z,5.61
2023-02-12T07:46:01.700Z,5.67
2023-02-12T07:47:04.052Z,5.72
2023-02-12T07:48:00.917Z,5.7
2023-02-12T07:49:00.919Z,5.69
2023-02-12T07:50:00.953Z,5.74
2023-02-12T07:51:00.913Z,5.8
2023-02-12T07:52:00.940Z,5.79
2023-02-12T07:53:00.928Z,5.76
2023-02-12T07:54:00.949Z,5.83
2023-02-12T07:55:00.943Z,5.79
2023-02-12T07:56:01.437Z,5.9
2023-02-12T07:57:00.930Z,5.83
2023-02-12T07:58:03.862Z,5.8
2023-02-12T07:59:00.955Z,5.91
2023-02-12T08:00:00.790Z,5.92
2023-02-12T08:01:00.919Z,5.92
2023-02-12T08:02:01.234Z,5.95
2023-02-12T08:03:00.922Z,5.98
2023-02-12T08:04:01.037Z,5.98
2023-02-12T08:05:01.652Z,5.97
2023-02-12T08:06:01.450Z,6.06
2023-02-12T08:07:00.937Z,6.05
2023-02-12T08:08:00.927Z,6.07
2023-02-12T08:09:03.828Z,6.1
2023-02-12T08:10:00.948Z,6.13
2023-02-12T08:11:00.928Z,6.09
2023-02-12T08:12:01.792Z,6.16
2023-02-12T08:13:00.943Z,6.15
2023-02-12T08:14:00.985Z,6.25
2023-02-12T08:15:00.965Z,6.22
2023-02-12T08:16:04.210Z,6.25
2023-02-12T08:17:01.100Z,6.31
2023-02-12T08:18:00.936Z,6.34
2023-02-12T08:19:23.882Z,6.34
2023-02-12T08:20:03.633Z,6.32
2023-02-12T08:21:00.802Z,6.46
2023-02-12T08:22:00.830Z,6.52
2023-02-12T08:23:00.976Z,6.39
2023-02-12T08:24:00.981Z,6.35
2023-02-12T08:25:04.122Z,6.43
2023-02-12T08:26:01.578Z,6.35
2023-02-12T08:27:00.977Z,6.43
2023-02-12T08:28:00.904Z,6.49
2023-02-12T08:29:00.980Z,6.35
2023-02-12T08:30:01.108Z,6.41
2023-02-12T08:31:04.125Z,6.46
2023-02-12T08:32:01.352Z,6.54
2023-02-12T08:33:00.967Z,6.47
2023-02-12T08:34:00.966Z,6.5
2023-02-12T08:35:01.007Z,6.5
2023-02-12T08:36:05.006Z,6.56
2023-02-12T08:37:01.227Z,6.6
2023-02-12T08:38:00.983Z,6.59
2023-02-12T08:39:00.990Z,6.64
2023-02-12T08:40:01.111Z,6.6
2023-02-12T08:41:01.008Z,6.7
2023-02-12T08:42:03.748Z,6.77
2023-02-12T08:43:01.006Z,6.74
2023-02-12T08:44:01.008Z,6.65
2023-02-12T08:45:00.993Z,6.82
2023-02-12T08:46:01.650Z,6.74
2023-02-12T08:47:04.092Z,6.89
2023-02-12T08:48:01.008Z,6.74
2023-02-12T08:49:00.998Z,6.82
2023-02-12T08:50:00.982Z,6.85
2023-02-12T08:51:01.009Z,6.9
2023-02-12T08:52:01.007Z,6.92
2023-02-12T08:53:00.984Z,6.93
2023-02-12T08:54:00.865Z,6.9
2023-02-12T08:55:01.032Z,6.9
2023-02-12T08:56:01.569Z,6.92
2023-02-12T08:57:01.064Z,6.89
2023-02-12T08:58:01.028Z,7.07
2023-02-12T08:59:01.007Z,6.92
2023-02-12T09:00:01.065Z,7.01
2023-02-12T09:01:01.127Z,7.11
2023-02-12T09:02:01.370Z,7.07
2023-02-12T09:03:01.037Z,7.14
2023-02-12T09:04:01.005Z,7.21
2023-02-12T09:05:01.041Z,7.21
2023-02-12T09:06:01.494Z,7.15
2023-02-12T09:07:01.054Z,7.21
2023-02-12T09:08:01.032Z,7.13
2023-02-12T09:09:01.021Z,7.21
2023-02-12T09:10:01.050Z,7.11
2023-02-12T09:11:01.037Z,7.21
2023-02-12T09:12:01.029Z,7.13
2023-02-12T09:13:01.016Z,7.21
2023-02-12T09:14:04.005Z,7.19
2023-02-12T09:15:01.035Z,7.14
2023-02-12T09:16:01.830Z,7.18
2023-02-12T09:17:01.251Z,7.18
2023-02-12T09:18:01.116Z,7.19
2023-02-12T09:19:01.135Z,7.18
2023-02-12T09:20:01.040Z,7.18
2023-02-12T09:21:01.051Z,7.19
2023-02-12T09:22:01.663Z,7.22
2023-02-12T09:23:01.015Z,7.26
2023-02-12T09:24:01.063Z,7.26
2023-02-12T09:25:01.037Z,7.29
2023-02-12T09:26:01.486Z,7.32
2023-02-12T09:27:01.011Z,7.37
2023-02-12T09:28:01.145Z,7.31
2023-02-12T09:29:01.032Z,7.4
2023-02-12T09:30:04.042Z,7.39
2023-02-12T09:31:01.606Z,7.41
2023-02-12T09:32:01.528Z,7.44
2023-02-12T09:33:01.135Z,7.48
2023-02-12T09:34:01.122Z,7.51
2023-02-12T09:35:01.067Z,7.48
2023-02-12T09:36:01.493Z,7.47
2023-02-12T09:37:00.886Z,7.51
2023-02-12T09:38:01.045Z,7.56
2023-02-12T09:39:01.090Z,7.51
2023-02-12T09:40:01.059Z,7.58
2023-02-12T09:41:04.211Z,7.55
2023-02-12T09:42:01.108Z,7.59
2023-02-12T09:43:01.052Z,7.55
2023-02-12T09:44:01.048Z,7.43
2023-02-12T09:45:01.061Z,7.47
2023-02-12T09:46:02.280Z,7.59
2023-02-12T09:47:01.126Z,7.67
2023-02-12T09:48:01.095Z,7.67
2023-02-12T09:49:01.061Z,7.75
2023-02-12T09:50:01.173Z,7.81
2023-02-12T09:51:01.112Z,7.7
2023-02-12T09:52:03.924Z,7.84
2023-02-12T09:53:01.107Z,7.83
2023-02-12T09:54:01.051Z,7.78
2023-02-12T09:55:01.075Z,7.81
2023-02-12T09:56:01.561Z,7.74
2023-02-12T09:57:01.093Z,7.77
2023-02-12T09:58:01.078Z,7.75
2023-02-12T09:59:01.071Z,7.67
2023-02-12T10:00:01.162Z,7.69
2023-02-12T10:01:01.084Z,7.8
2023-02-12T10:02:01.164Z,7.87
2023-02-12T10:03:07.554Z,7.88
2023-02-12T10:04:01.308Z,7.81
2023-02-12T10:05:06.821Z,7.75
2023-02-12T10:06:01.515Z,7.83
2023-02-12T10:07:01.115Z,7.83
2023-02-12T10:08:01.085Z,7.84
2023-02-12T10:09:01.093Z,7.91
2023-02-12T10:10:01.168Z,7.88
2023-02-12T10:11:01.096Z,7.74
2023-02-12T10:12:01.162Z,7.87
2023-02-12T10:13:00.958Z,7.9
2023-02-12T10:14:03.866Z,7.84
2023-02-12T10:15:01.143Z,8.06
2023-02-12T10:16:02.048Z,8.05
2023-02-12T10:17:01.081Z,8.09
2023-02-12T10:18:01.096Z,8.2
2023-02-12T10:19:01.130Z,8.23
2023-02-12T10:20:01.150Z,8.21
2023-02-12T10:21:02.007Z,8.34
2023-02-12T10:22:01.139Z,8.21
2023-02-12T10:23:02.086Z,8.36
2023-02-12T10:24:01.128Z,8.34
2023-02-12T10:25:05.307Z,8.45
2023-02-12T10:26:02.000Z,8.45
2023-02-12T10:27:02.215Z,8.35
2023-02-12T10:28:01.254Z,8.45
2023-02-12T10:29:01.195Z,8.53
2023-02-12T10:30:01.150Z,8.36
2023-02-12T10:31:01.642Z,8.36
2023-02-12T10:32:02.255Z,8.44
2023-02-12T10:33:01.173Z,8.42
2023-02-12T10:34:01.258Z,8.45
2023-02-12T10:35:01.137Z,8.44
2023-02-12T10:36:04.484Z,8.39
2023-02-12T10:37:01.173Z,8.5
2023-02-12T10:38:01.142Z,8.38
2023-02-12T10:39:01.161Z,8.44
2023-02-12T10:40:01.133Z,8.36
2023-02-12T10:41:01.140Z,8.35
2023-02-12T10:42:01.157Z,8.39
2023-02-12T10:43:01.189Z,8.5
2023-02-12T10:44:01.558Z,8.59
2023-02-12T10:45:01.129Z,8.64
2023-02-12T10:46:01.800Z,8.63
2023-02-12T10:47:04.465Z,8.57
2023-02-12T10:48:01.136Z,8.57
2023-02-12T10:49:01.291Z,8.64
2023-02-12T10:50:01.231Z,8.71
2023-02-12T10:51:01.185Z,8.72
2023-02-12T10:52:02.240Z,8.77
2023-02-12T10:53:01.624Z,8.78
2023-02-12T10:54:01.132Z,8.78
2023-02-12T10:55:01.196Z,8.74
2023-02-12T10:56:01.735Z,8.75
2023-02-12T10:57:01.165Z,8.81
2023-02-12T10:58:06.007Z,8.74
2023-02-12T10:59:01.167Z,8.74
2023-02-12T11:00:01.157Z,8.72
2023-02-12T11:01:01.177Z,8.69
2023-02-12T11:02:01.315Z,8.56
2023-02-12T11:03:03.921Z,8.63
2023-02-12T11:04:01.170Z,8.63
2023-02-12T11:05:01.397Z,8.61
2023-02-12T11:06:01.692Z,8.69
2023-02-12T11:07:01.255Z,8.72
2023-02-12T11:08:01.220Z,8.63
2023-02-12T11:09:04.099Z,8.64
2023-02-12T11:10:01.207Z,8.71
2023-02-12T11:11:01.206Z,8.68
2023-02-12T11:12:01.204Z,8.64
2023-02-12T11:13:01.235Z,8.71
2023-02-12T11:14:04.033Z,8.66
2023-02-12T11:15:01.255Z,8.61
2023-02-12T11:16:02.180Z,8.74
2023-02-12T11:17:01.221Z,8.59
2023-02-12T11:18:01.564Z,8.61
2023-02-12T11:19:01.177Z,8.59
2023-02-12T11:20:01.298Z,8.6
2023-02-12T11:21:01.241Z,8.61
2023-02-12T11:22:01.229Z,8.63
2023-02-12T11:23:01.204Z,8.71
2023-02-12T11:24:01.803Z,8.71
2023-02-12T11:25:01.195Z,8.66
2023-02-12T11:26:01.684Z,8.66
2023-02-12T11:27:01.239Z,8.72
2023-02-12T11:28:01.566Z,8.79
2023-02-12T11:29:01.755Z,8.71
2023-02-12T11:30:01.197Z,8.77
2023-02-12T11:31:01.599Z,8.75
2023-02-12T11:32:01.400Z,8.75
2023-02-12T11:33:01.259Z,8.72
2023-02-12T11:34:01.256Z,8.77
2023-02-12T11:35:01.265Z,8.69
2023-02-12T11:36:01.575Z,8.82
2023-02-12T11:37:01.242Z,8.84
2023-02-12T11:38:01.213Z,8.74
2023-02-12T11:39:01.213Z,8.71
2023-02-12T11:40:01.275Z,8.81
2023-02-12T11:41:05.041Z,8.64
2023-02-12T11:42:01.213Z,8.74
2023-02-12T11:43:01.240Z,8.81
2023-02-12T11:44:01.210Z,8.74
2023-02-12T11:45:01.295Z,8.74
2023-02-12T11:46:04.694Z,8.78
2023-02-12T11:47:01.530Z,8.77
2023-02-12T11:48:01.214Z,8.77
2023-02-12T11:49:01.246Z,8.74
2023-02-12T11:50:01.220Z,8.75
2023-02-12T11:51:01.258Z,8.75
2023-02-12T11:52:04.411Z,8.69
2023-02-12T11:53:01.276Z,8.66
2023-02-12T11:54:01.220Z,8.6
2023-02-12T11:55:01.246Z,8.71
2023-02-12T11:56:01.698Z,8.72
2023-02-12T11:57:04.421Z,8.74
2023-02-12T11:58:01.217Z,8.77
2023-02-12T11:59:01.298Z,8.77
2023-02-12T12:00:01.261Z,8.75
2023-02-12T12:01:01.245Z,8.78
2023-02-12T12:02:01.470Z,8.79
2023-02-12T12:03:04.265Z,8.74
2023-02-12T12:04:01.314Z,8.72
2023-02-12T12:05:01.269Z,8.72
2023-02-12T12:06:01.616Z,8.77
2023-02-12T12:07:01.295Z,8.84
2023-02-12T12:08:04.010Z,8.77
2023-02-12T12:09:01.253Z,8.78
2023-02-12T12:10:01.277Z,8.97
2023-02-12T12:11:01.251Z,9.37
2023-02-12T12:12:01.316Z,8.97
2023-02-12T12:13:01.239Z,9
2023-02-12T12:14:01.261Z,8.92
2023-02-12T12:15:01.286Z,8.86
2023-02-12T12:16:01.923Z,8.78
2023-02-12T12:17:01.276Z,8.74
2023-02-12T12:18:01.275Z,8.69
2023-02-12T12:19:01.696Z,8.64
2023-02-12T12:20:01.284Z,8.5
2023-02-12T12:21:01.252Z,8.6
2023-02-12T12:22:01.265Z,8.49
2023-02-12T12:23:01.269Z,8.57
2023-02-12T12:24:01.268Z,8.57
2023-02-12T12:25:01.292Z,8.56
2023-02-12T12:26:01.789Z,8.64
2023-02-12T12:27:01.296Z,8.68
2023-02-12T12:28:01.480Z,8.44
2023-02-12T12:29:01.299Z,8.45
2023-02-12T12:30:04.449Z,8.54
2023-02-12T12:31:01.531Z,8.54
2023-02-12T12:32:01.435Z,8.52
2023-02-12T12:33:01.282Z,8.6
2023-02-12T12:34:01.286Z,8.59
2023-02-12T12:35:01.338Z,8.59
2023-02-12T12:36:01.812Z,8.54
2023-02-12T12:37:01.303Z,8.53
2023-02-12T12:38:01.289Z,8.69
2023-02-12T12:39:01.334Z,8.56
2023-02-12T12:40:01.285Z,8.69
2023-02-12T12:41:04.338Z,8.72
2023-02-12T12:42:01.314Z,8.66
2023-02-12T12:43:01.358Z,8.74
2023-02-12T12:44:01.357Z,8.74
2023-02-12T12:45:01.313Z,8.77
2023-02-12T12:46:02.257Z,8.72
2023-02-12T12:47:01.358Z,8.75
2023-02-12T12:48:01.317Z,8.69
2023-02-12T12:49:01.315Z,8.74
2023-02-12T12:50:01.318Z,8.57
2023-02-12T12:51:01.345Z,8.66
2023-02-12T12:52:04.384Z,8.61
2023-02-12T12:53:01.310Z,8.74
2023-02-12T12:54:01.342Z,8.71
2023-02-12T12:55:01.308Z,8.71
2023-02-12T12:56:01.798Z,8.72
2023-02-12T12:57:01.357Z,8.72
2023-02-12T12:58:01.358Z,8.77
2023-02-12T12:59:01.336Z,8.74
2023-02-12T13:00:01.390Z,8.75
2023-02-12T13:01:01.433Z,8.72
2023-02-12T13:02:01.448Z,8.71
2023-02-12T13:03:04.467Z,8.75
2023-02-12T13:04:01.355Z,8.79
2023-02-12T13:05:01.349Z,8.74
2023-02-12T13:06:02.115Z,8.79
2023-02-12T13:07:01.340Z,8.86
2023-02-12T13:08:01.387Z,8.86
2023-02-12T13:09:01.367Z,8.84
2023-02-12T13:10:01.342Z,8.86
2023-02-12T13:11:01.340Z,8.87
2023-02-12T13:12:01.327Z,8.74
2023-02-12T13:13:01.396Z,8.74
2023-02-12T13:14:04.206Z,8.68
2023-02-12T13:15:01.343Z,8.69
2023-02-12T13:16:01.910Z,8.78
2023-02-12T13:17:01.495Z,8.78
2023-02-12T13:18:01.378Z,8.69
2023-02-12T13:19:01.501Z,8.66
2023-02-12T13:20:01.373Z,8.72
2023-02-12T13:21:01.365Z,8.74
2023-02-12T13:22:01.472Z,8.72